Time;durP1;ratioP1;P1;durP2;ratioP2;P2;SDS_P1;SDS_P2;PMS_P1;PMS_P2;Temp;Humidity;BMP_temperature;BMP_pressure;BME280_temperature;BME280_humidity;BME280_pressure;Samples;Min_cycle;Max_cycle;Signal;HPM_P1;HPM_P2
2022/11/06 00:01:04;;;;;;;;;;;;;;;7.73;93.93;97145.66;107648;1269;60440;-73
2022/11/06 00:03:34;;;;;;;;;;;;;;;7.70;93.49;97143.75;107652;1269;72070;-73
2022/11/06 00:08:55;;;;;;;;;;;;;;;7.65;94.22;97151.88;107676;1270;70019;-73
2022/11/06 00:11:25;;;;;;;;;;;;;;;7.63;92.14;97152.19;107621;1266;60926;-73
2022/11/06 00:13:54;;;;;;;;;;;;;;;7.60;93.47;97156.73;107644;1267;60999;-72
2022/11/06 00:16:24;;;;;;;;;;;;;;;7.55;92.28;97161.52;107676;1269;72556;-74
2022/11/06 00:18:53;;;;;;;;;;;;;;;7.51;93.18;97159.08;107643;1270;69168;-73
2022/11/06 00:21:24;;;;;;;;;;;;;;;7.48;95.51;97160.11;107652;1270;69174;-72
2022/11/06 00:23:53;;;;;;;;;;;;;;;7.43;94.32;97161.66;107654;1268;60597;-72
2022/11/06 00:26:24;;;;;;;;;;;;;;;7.39;95.86;97159.98;107697;1268;60561;-73
2022/11/06 00:28:53;;;;;;;;;;;;;;;7.36;96.88;97159.46;107678;1264;72284;-72
2022/11/06 00:31:27;;;;;;;;;;;;;;;7.32;96.93;97163.18;107672;1268;69165;-73
2022/11/06 00:33:57;;;;;;;;;;;;;;;7.29;95.89;97164.64;107584;1267;69693;-73
2022/11/06 00:36:29;;;;;;;;;;;;;;;7.26;94.37;97167.24;107649;1268;60493;-73
2022/11/06 00:38:59;;;;;;;;;;;;;;;7.25;94.20;97160.01;107655;1264;60528;-71
2022/11/06 00:41:29;;;;;;;;;;;;;;;7.27;94.52;97159.36;107641;1268;72220;-71
2022/11/06 00:43:59;;;;;;;;;;;;;;;7.29;93.73;97164.64;107647;1269;70169;-73
2022/11/06 00:46:27;;;;;;;;;;;;;;;7.31;93.16;97173.83;107651;1269;69907;-73
2022/11/06 00:48:57;;;;;;;;;;;;;;;7.33;94.83;97182.59;107659;1268;60534;-73
2022/11/06 00:51:31;;;;;;;;;;;;;;;7.30;94.56;97185.20;107672;1266;60572;-72
2022/11/06 00:54:01;;;;;;;;;;;;;;;7.27;93.96;97186.08;107649;1270;72813;-72
2022/11/06 00:56:31;;;;;;;;;;;;;;;7.25;93.55;97189.33;107673;1268;68415;-72
2022/11/06 00:59:03;;;;;;;;;;;;;;;7.21;93.86;97187.98;107640;1269;69805;-72
2022/11/06 01:01:34;;;;;;;;;;;;;;;7.17;94.12;97185.13;107662;1266;60563;-75
2022/11/06 01:04:10;;;;;;;;;;;;;;;7.13;94.80;97182.95;107674;1266;60506;-74
2022/11/06 01:06:42;;;;;;;;;;;;;;;7.10;94.32;97184.69;107681;1269;72142;-74
2022/11/06 01:09:12;;;;;;;;;;;;;;;7.09;97.20;97192.16;107705;1269;68246;-74
2022/11/06 01:11:43;;;;;;;;;;;;;;;7.06;96.80;97190.14;107665;1268;69754;-73
2022/11/06 01:14:34;;;;;;;;;;;;;;;7.01;95.78;97191.17;107629;1268;60962;-75
2022/11/06 01:17:03;;;;;;;;;;;;;;;6.96;95.86;97186.75;107673;1268;60467;-72
2022/11/06 01:19:32;;;;;;;;;;;;;;;6.94;96.45;97191.23;107645;1266;72564;-72
2022/11/06 01:22:02;;;;;;;;;;;;;;;6.92;96.84;97188.39;107679;1266;69205;-74
2022/11/06 01:24:31;;;;;;;;;;;;;;;6.92;96.60;97189.29;107657;1269;68547;-75
2022/11/06 01:27:00;;;;;;;;;;;;;;;6.90;96.31;97188.68;107671;1266;60533;-75
2022/11/06 01:29:50;;;;;;;;;;;;;;;6.91;95.27;97187.13;107659;1265;60505;-72
2022/11/06 01:32:19;;;;;;;;;;;;;;;6.90;96.99;97183.84;107689;1268;72414;-75
2022/11/06 01:34:50;;;;;;;;;;;;;;;6.89;95.80;97183.74;107699;1269;70031;-74
2022/11/06 01:37:19;;;;;;;;;;;;;;;6.88;94.99;97181.55;107668;1268;69257;-74
2022/11/06 01:39:49;;;;;;;;;;;;;;;6.87;96.00;97182.67;107670;1265;61011;-74
2022/11/06 01:42:20;;;;;;;;;;;;;;;6.85;96.20;97187.80;107680;1269;60524;-73
2022/11/06 01:45:04;;;;;;;;;;;;;;;6.82;95.89;97186.42;107682;1269;72136;-74
2022/11/06 01:47:34;;;;;;;;;;;;;;;6.77;96.17;97185.86;107638;1270;69457;-74
2022/11/06 01:50:06;;;;;;;;;;;;;;;6.72;96.09;97185.83;107638;1270;69342;-74
2022/11/06 01:52:36;;;;;;;;;;;;;;;6.72;95.73;97190.18;107646;1269;60572;-73
2022/11/06 01:55:18;;;;;;;;;;;;;;;6.73;96.91;97189.61;107640;1265;60878;-73
2022/11/06 01:57:48;;;;;;;;;;;;;;;6.73;95.02;97188.91;107687;1264;71687;-73
2022/11/06 02:00:19;;;;;;;;;;;;;;;6.77;94.38;97187.58;107669;1269;69055;-73
2022/11/06 02:02:50;;;;;;;;;;;;;;;6.83;94.83;97187.77;107601;1269;69668;-73
2022/11/06 02:05:20;;;;;;;;;;;;;;;6.87;95.16;97186.96;107644;1268;60506;-73
2022/11/06 02:07:51;;;;;;;;;;;;;;;6.92;94.70;97189.81;107700;1269;60564;-73
2022/11/06 02:10:21;;;;;;;;;;;;;;;6.97;95.44;97190.34;107675;1269;71228;-73
2022/11/06 02:13:02;;;;;;;;;;;;;;;6.99;95.93;97193.34;107650;1268;68399;-73
2022/11/06 02:15:32;;;;;;;;;;;;;;;7.00;96.16;97195.16;107652;1269;69713;-73
2022/11/06 02:18:21;;;;;;;;;;;;;;;7.01;96.89;97196.90;107645;1266;60548;-73
2022/11/06 02:21:03;;;;;;;;;;;;;;;7.01;97.27;97198.08;107636;1269;60487;-73
2022/11/06 02:23:51;;;;;;;;;;;;;;;6.99;97.24;97197.54;107655;1265;72141;-73
2022/11/06 02:26:31;;;;;;;;;;;;;;;6.98;98.73;97197.77;107654;1269;69521;-73
2022/11/06 02:29:07;;;;;;;;;;;;;;;6.99;99.15;97199.10;107683;1269;68123;-72
2022/11/06 02:31:39;;;;;;;;;;;;;;;7.02;99.25;97198.89;107645;1269;60608;-73
2022/11/06 02:34:14;;;;;;;;;;;;;;;7.03;98.78;97201.41;107667;1268;60539;-73
2022/11/06 02:36:52;;;;;;;;;;;;;;;7.02;98.63;97205.64;107647;1268;71410;-73
2022/11/06 02:39:25;;;;;;;;;;;;;;;6.96;98.07;97208.98;107648;1268;68496;-74
2022/11/06 02:41:57;;;;;;;;;;;;;;;6.89;97.62;97210.25;107631;1265;69098;-73
2022/11/06 02:44:30;;;;;;;;;;;;;;;6.85;97.82;97210.52;107647;1266;60568;-74
2022/11/06 02:47:04;;;;;;;;;;;;;;;6.85;97.64;97213.61;107658;1268;60502;-73
2022/11/06 02:49:49;;;;;;;;;;;;;;;6.86;97.40;97212.86;107628;1268;71477;-73
2022/11/06 02:52:31;;;;;;;;;;;;;;;6.89;97.53;97219.59;107642;1269;69202;-74
2022/11/06 02:55:05;;;;;;;;;;;;;;;6.90;96.52;97217.64;107614;1270;69186;-74
2022/11/06 02:57:37;;;;;;;;;;;;;;;6.96;96.85;97217.63;107648;1270;60973;-74
2022/11/06 03:00:09;;;;;;;;;;;;;;;6.98;96.44;97221.15;107637;1268;60492;-74
2022/11/06 03:02:42;;;;;;;;;;;;;;;7.09;97.80;97222.36;107661;1269;71646;-74
2022/11/06 03:05:18;;;;;;;;;;;;;;;7.26;97.15;97223.60;107658;1268;69097;-75
2022/11/06 03:08:08;;;;;;;;;;;;;;;7.36;96.76;97228.14;107619;1268;69192;-73
2022/11/06 03:10:50;;;;;;;;;;;;;;;7.48;96.92;97226.53;107659;1269;60571;-73
2022/11/06 03:13:21;;;;;;;;;;;;;;;7.51;95.92;97230.48;107630;1265;60570;-73
2022/11/06 03:15:56;;;;;;;;;;;;;;;7.51;95.74;97229.95;107658;1266;72818;-72
2022/11/06 03:18:35;;;;;;;;;;;;;;;7.53;95.72;97230.88;107661;1269;69719;-72
2022/11/06 03:21:09;;;;;;;;;;;;;;;7.53;95.45;97232.61;107633;1269;69175;-73
2022/11/06 03:23:47;;;;;;;;;;;;;;;7.58;95.64;97231.08;107644;1270;60614;-73
2022/11/06 03:26:20;;;;;;;;;;;;;;;7.71;95.64;97228.56;107655;1269;60579;-72
2022/11/06 03:29:09;;;;;;;;;;;;;;;7.75;95.18;97228.98;107667;1266;72179;-72
2022/11/06 03:32:05;;;;;;;;;;;;;;;7.77;95.07;97230.93;107690;1268;69215;-73
2022/11/06 03:34:38;;;;;;;;;;;;;;;7.74;94.47;97234.23;107632;1261;69762;-72
2022/11/06 03:37:15;;;;;;;;;;;;;;;7.71;94.17;97233.02;107629;1266;60497;-72
2022/11/06 03:39:49;;;;;;;;;;;;;;;7.70;94.30;97233.11;107680;1266;60574;-73
2022/11/06 03:42:27;;;;;;;;;;;;;;;7.72;95.15;97232.77;107669;1264;71422;-73
2022/11/06 03:44:59;;;;;;;;;;;;;;;7.75;94.73;97238.54;107664;1268;69845;-72
2022/11/06 03:47:38;;;;;;;;;;;;;;;7.76;94.55;97240.54;107639;1269;68538;-73
2022/11/06 03:50:14;;;;;;;;;;;;;;;7.79;94.37;97237.59;107620;1266;60559;-73
2022/11/06 03:52:54;;;;;;;;;;;;;;;7.83;93.82;97237.48;107665;1264;60620;-73
2022/11/06 03:55:27;;;;;;;;;;;;;;;7.89;93.51;97236.86;107673;1269;71378;-73
2022/11/06 03:58:05;;;;;;;;;;;;;;;7.91;92.91;97236.95;107644;1264;69177;-72
2022/11/06 04:00:37;;;;;;;;;;;;;;;7.89;92.79;97240.70;107647;1268;68553;-74
2022/11/06 04:03:21;;;;;;;;;;;;;;;7.84;93.11;97237.92;107636;1266;60956;-75
2022/11/06 04:05:55;;;;;;;;;;;;;;;7.76;94.00;97237.90;107676;1268;60640;-74
2022/11/06 04:14:07;;;;;;;;;;;;;;;7.67;93.51;97245.60;107732;1266;68837;-74
2022/11/06 04:16:42;;;;;;;;;;;;;;;7.68;93.72;97246.59;107651;1264;60535;-74
2022/11/06 04:19:16;;;;;;;;;;;;;;;7.69;94.03;97243.23;107706;1266;60943;-75
2022/11/06 04:22:22;;;;;;;;;;;;;;;7.69;93.78;97243.06;107672;1265;71663;-73
2022/11/06 04:28:08;;;;;;;;;;;;;;;7.63;93.59;97242.05;107639;1268;69245;-73
2022/11/06 04:30:56;;;;;;;;;;;;;;;7.57;93.62;97240.84;107628;1269;60575;-73
2022/11/06 04:33:28;;;;;;;;;;;;;;;7.51;93.86;97247.16;107655;1269;60484;-73
2022/11/06 04:36:03;;;;;;;;;;;;;;;7.45;93.27;97243.72;107652;1269;71870;-73
2022/11/06 04:38:41;;;;;;;;;;;;;;;7.42;93.28;97242.66;107699;1266;69078;-73
2022/11/06 04:41:16;;;;;;;;;;;;;;;7.38;93.37;97241.85;107663;1264;69149;-73
2022/11/06 04:43:57;;;;;;;;;;;;;;;7.37;93.14;97242.98;107650;1268;60499;-73
2022/11/06 04:46:29;;;;;;;;;;;;;;;7.39;93.15;97244.55;107671;1265;60506;-73
2022/11/06 04:48:59;;;;;;;;;;;;;;;7.43;93.22;97245.73;107650;1268;72191;-73
2022/11/06 04:51:30;;;;;;;;;;;;;;;7.43;93.18;97249.18;107678;1259;69022;-74
2022/11/06 04:54:00;;;;;;;;;;;;;;;7.42;93.09;97250.31;107629;1264;69175;-73
2022/11/06 04:56:32;;;;;;;;;;;;;;;7.37;93.60;97250.41;107649;1265;60525;-73
2022/11/06 04:59:03;;;;;;;;;;;;;;;7.34;94.35;97247.13;107655;1264;60540;-73
2022/11/06 05:01:32;;;;;;;;;;;;;;;7.32;94.17;97246.44;107640;1268;70766;-73
2022/11/06 05:04:02;;;;;;;;;;;;;;;7.29;93.70;97249.34;107669;1265;69229;-73
2022/11/06 05:06:31;;;;;;;;;;;;;;;7.29;93.45;97251.48;107627;1268;68327;-73
2022/11/06 05:09:00;;;;;;;;;;;;;;;7.26;93.42;97254.92;107638;1268;60520;-73
2022/11/06 05:11:29;;;;;;;;;;;;;;;7.26;93.22;97255.65;107678;1269;60550;-73
2022/11/06 05:13:58;;;;;;;;;;;;;;;7.25;93.71;97261.41;107686;1269;72052;-73
2022/11/06 05:16:27;;;;;;;;;;;;;;;7.22;93.90;97262.63;107686;1268;69844;-73
2022/11/06 05:18:56;;;;;;;;;;;;;;;7.23;93.32;97269.87;107650;1268;70030;-73
2022/11/06 05:24:13;;;;;;;;;;;;;;;7.27;93.49;97278.31;107694;1268;60491;-73
2022/11/06 05:26:42;;;;;;;;;;;;;;;7.27;94.90;97281.27;107669;1269;72199;-72
2022/11/06 05:29:12;;;;;;;;;;;;;;;7.26;95.03;97286.00;107663;1259;69226;-73
2022/11/06 05:31:41;;;;;;;;;;;;;;;7.24;94.60;97287.84;107662;1264;69748;-75
2022/11/06 05:34:10;;;;;;;;;;;;;;;7.24;94.00;97287.48;107653;1268;60678;-73
2022/11/06 05:36:39;;;;;;;;;;;;;;;7.27;94.10;97288.49;107639;1268;60544;-73
2022/11/06 05:39:08;;;;;;;;;;;;;;;7.32;94.01;97292.67;107682;1268;72187;-72
2022/11/06 05:41:37;;;;;;;;;;;;;;;7.37;94.24;97292.57;107642;1264;68284;-73
2022/11/06 05:44:06;;;;;;;;;;;;;;;7.39;94.67;97292.24;107683;1269;68482;-73
2022/11/06 05:46:35;;;;;;;;;;;;;;;7.43;94.91;97296.02;107672;1266;60569;-73
2022/11/06 05:49:17;;;;;;;;;;;;;;;7.47;94.66;97298.02;107648;1266;60503;-73
2022/11/06 05:51:46;;;;;;;;;;;;;;;7.51;94.08;97300.02;107672;1266;71852;-73
2022/11/06 05:54:14;;;;;;;;;;;;;;;7.57;93.84;97303.64;107693;1266;69153;-73
2022/11/06 05:56:43;;;;;;;;;;;;;;;7.63;93.89;97313.15;107627;1266;68475;-73
2022/11/06 05:59:12;;;;;;;;;;;;;;;7.68;93.96;97313.39;107651;1268;60574;-73
2022/11/06 06:01:41;;;;;;;;;;;;;;;7.73;93.65;97313.23;107682;1265;60481;-74
2022/11/06 06:04:10;;;;;;;;;;;;;;;7.80;93.06;97317.64;107619;1264;72523;-73
2022/11/06 06:06:39;;;;;;;;;;;;;;;7.88;92.67;97319.56;107664;1265;68715;-74
2022/11/06 06:09:07;;;;;;;;;;;;;;;7.93;92.42;97323.04;107659;1266;70052;-74
2022/11/06 06:11:35;;;;;;;;;;;;;;;7.98;92.31;97323.93;107648;1266;60555;-74
2022/11/06 06:14:04;;;;;;;;;;;;;;;8.04;92.12;97327.95;107648;1266;60513;-73
2022/11/06 06:16:33;;;;;;;;;;;;;;;8.07;92.21;97331.33;107661;1268;72463;-73
2022/11/06 06:19:01;;;;;;;;;;;;;;;8.11;92.20;97336.45;107639;1268;68798;-74
2022/11/06 06:21:30;;;;;;;;;;;;;;;8.16;92.06;97342.25;107638;1268;69299;-74
2022/11/06 06:23:58;;;;;;;;;;;;;;;8.23;92.15;97353.12;107662;1268;61029;-73
2022/11/06 06:26:27;;;;;;;;;;;;;;;8.29;92.05;97360.86;107665;1265;60931;-74
2022/11/06 06:28:56;;;;;;;;;;;;;;;8.35;92.05;97360.13;107690;1268;72018;-74
2022/11/06 06:31:25;;;;;;;;;;;;;;;8.44;91.87;97359.55;107696;1264;68338;-74
2022/11/06 06:33:53;;;;;;;;;;;;;;;8.55;91.61;97360.02;107651;1268;69874;-73
2022/11/06 06:36:22;;;;;;;;;;;;;;;8.66;91.37;97358.95;107652;1269;60565;-74
2022/11/06 06:38:51;;;;;;;;;;;;;;;8.77;91.06;97363.34;107667;1269;60526;-74
2022/11/06 06:41:19;;;;;;;;;;;;;;;8.85;90.94;97366.39;107690;1264;72289;-74
2022/11/06 06:43:48;;;;;;;;;;;;;;;8.97;91.12;97368.42;107670;1266;69185;-74
2022/11/06 06:46:17;;;;;;;;;;;;;;;9.09;90.90;97366.52;107650;1264;69264;-74
2022/11/06 06:48:45;;;;;;;;;;;;;;;9.20;90.35;97362.33;107641;1265;60542;-75
2022/11/06 06:51:14;;;;;;;;;;;;;;;9.31;89.97;97364.58;107684;1266;60566;-75
2022/11/06 06:53:50;;;;;;;;;;;;;;;9.40;89.68;97365.31;107688;1269;71694;-76
2022/11/06 06:56:19;;;;;;;;;;;;;;;9.48;89.05;97369.26;107649;1268;68657;-74
2022/11/06 06:58:48;;;;;;;;;;;;;;;9.53;87.63;97371.39;107649;1264;68442;-75
2022/11/06 07:01:16;;;;;;;;;;;;;;;9.59;87.69;97376.88;107665;1268;60519;-74
2022/11/06 07:03:45;;;;;;;;;;;;;;;9.72;88.45;97378.09;107671;1266;60539;-75
2022/11/06 07:06:16;;;;;;;;;;;;;;;9.94;87.58;97374.44;107651;1269;72170;-75
2022/11/06 07:08:45;;;;;;;;;;;;;;;10.16;87.06;97366.75;107800;1261;68612;-75
2022/11/06 07:11:13;;;;;;;;;;;;;;;10.37;85.99;97366.68;107747;1264;70163;-74
2022/11/06 07:13:43;;;;;;;;;;;;;;;10.60;83.45;97365.12;107679;1268;60914;-75
2022/11/06 07:16:12;;;;;;;;;;;;;;;10.89;82.61;97367.18;107669;1266;60502;-75
2022/11/06 07:18:40;;;;;;;;;;;;;;;11.10;81.88;97367.36;107667;1268;72817;-75
2022/11/06 07:21:10;;;;;;;;;;;;;;;11.49;81.92;97366.64;107643;1265;68667;-74
2022/11/06 07:23:39;;;;;;;;;;;;;;;11.88;80.91;97366.60;107654;1264;69780;-75
2022/11/06 07:26:07;;;;;;;;;;;;;;;12.30;81.65;97363.79;107648;1268;60538;-75
2022/11/06 07:28:36;;;;;;;;;;;;;;;12.76;82.51;97364.94;107278;1266;485878;-75
2022/11/06 07:31:06;;;;;;;;;;;;;;;13.21;83.62;97369.41;107657;1269;71547;-75
2022/11/06 07:33:34;;;;;;;;;;;;;;;13.61;76.96;97368.48;107639;1264;68588;-75
2022/11/06 07:36:03;;;;;;;;;;;;;;;14.03;79.11;97370.11;107649;1264;68465;-75
2022/11/06 07:38:33;;;;;;;;;;;;;;;14.45;76.36;97365.73;107650;1269;60470;-75
2022/11/06 07:41:06;;;;;;;;;;;;;;;14.81;74.37;97365.06;107662;1269;61019;-75
2022/11/06 07:43:34;;;;;;;;;;;;;;;15.14;73.94;97365.78;107655;1268;72825;-74
2022/11/06 07:46:04;;;;;;;;;;;;;;;15.41;69.17;97363.95;107645;1264;69814;-73
2022/11/06 07:48:33;;;;;;;;;;;;;;;15.51;62.79;97367.92;107677;1268;69211;-74
2022/11/06 07:51:03;;;;;;;;;;;;;;;15.65;62.53;97365.47;107664;1266;60500;-75
2022/11/06 07:53:32;;;;;;;;;;;;;;;15.88;61.15;97374.16;107667;1268;60531;-75
2022/11/06 07:56:00;;;;;;;;;;;;;;;15.71;61.78;97377.02;107663;1264;72136;-74
2022/11/06 07:58:29;;;;;;;;;;;;;;;15.82;60.59;97373.86;107648;1268;68363;-74
2022/11/06 08:00:58;;;;;;;;;;;;;;;16.05;60.24;97374.30;107603;1264;69275;-74
2022/11/06 08:03:28;;;;;;;;;;;;;;;16.28;59.36;97369.96;107648;1266;60577;-74
2022/11/06 08:05:58;;;;;;;;;;;;;;;16.70;60.79;97372.58;107667;1261;60506;-75
2022/11/06 08:08:26;;;;;;;;;;;;;;;16.81;60.83;97369.27;107629;1268;71445;-74
2022/11/06 08:10:55;;;;;;;;;;;;;;;17.08;60.91;97367.73;107654;1268;68280;-74
2022/11/06 08:13:24;;;;;;;;;;;;;;;17.30;60.87;97371.36;107629;1266;68764;-75
2022/11/06 08:15:53;;;;;;;;;;;;;;;17.38;60.48;97369.52;107668;1265;60581;-75
2022/11/06 08:18:22;;;;;;;;;;;;;;;18.03;58.42;97371.67;107668;1264;60499;-74
2022/11/06 08:20:51;;;;;;;;;;;;;;;18.30;57.93;97367.73;107645;1264;71698;-75
2022/11/06 08:23:20;;;;;;;;;;;;;;;18.11;57.60;97369.45;107605;1264;68729;-75
2022/11/06 08:25:48;;;;;;;;;;;;;;;18.13;57.45;97371.28;107670;1266;69260;-75
2022/11/06 08:28:17;;;;;;;;;;;;;;;18.07;57.86;97367.39;107618;1266;60578;-75
2022/11/06 08:30:45;;;;;;;;;;;;;;;18.66;57.99;97369.15;107637;1268;60487;-75
2022/11/06 08:33:13;;;;;;;;;;;;;;;18.82;56.86;97369.46;107668;1268;71708;-76
2022/11/06 08:35:42;;;;;;;;;;;;;;;19.60;54.41;97367.92;107623;1265;68779;-76
2022/11/06 08:38:10;;;;;;;;;;;;;;;20.09;50.95;97371.33;107641;1265;68513;-76
2022/11/06 08:40:40;;;;;;;;;;;;;;;20.63;52.70;97373.41;107673;1264;60576;-76
2022/11/06 08:43:09;;;;;;;;;;;;;;;21.05;47.15;97372.61;107626;1268;60476;-76
2022/11/06 08:45:39;;;;;;;;;;;;;;;21.55;49.18;97376.10;107635;1268;71382;-76
2022/11/06 08:48:08;;;;;;;;;;;;;;;22.10;48.52;97377.21;107635;1265;68525;-76
2022/11/06 08:50:38;;;;;;;;;;;;;;;22.18;44.51;97372.69;107652;1266;69496;-76
2022/11/06 08:53:06;;;;;;;;;;;;;;;22.21;45.38;97376.52;107676;1268;60509;-76
2022/11/06 08:55:36;;;;;;;;;;;;;;;22.42;44.90;97372.80;107662;1268;60557;-76
2022/11/06 08:58:05;;;;;;;;;;;;;;;22.71;44.18;97370.48;107686;1268;72037;-76
2022/11/06 09:00:34;;;;;;;;;;;;;;;22.61;44.20;97370.44;107663;1264;69285;-76
2022/11/06 09:03:07;;;;;;;;;;;;;;;22.73;44.02;97367.41;107649;1264;69068;-76
2022/11/06 09:05:38;;;;;;;;;;;;;;;22.68;41.46;97372.73;107664;1266;60564;-77
2022/11/06 09:08:07;;;;;;;;;;;;;;;22.92;42.52;97371.14;107681;1268;60507;-76
2022/11/06 09:10:36;;;;;;;;;;;;;;;23.12;41.75;97366.20;107679;1266;71734;-76
2022/11/06 09:13:05;;;;;;;;;;;;;;;23.43;40.97;97367.40;107665;1268;69249;-76
2022/11/06 09:15:33;;;;;;;;;;;;;;;23.37;40.56;97366.21;107636;1268;69074;-76
2022/11/06 09:18:02;;;;;;;;;;;;;;;23.40;40.34;97365.95;107625;1268;60508;-77
2022/11/06 09:20:31;;;;;;;;;;;;;;;23.42;39.70;97366.49;107678;1268;60875;-77
2022/11/06 09:23:00;;;;;;;;;;;;;;;23.38;39.52;97363.39;107809;1268;73725;-76
2022/11/06 09:25:29;;;;;;;;;;;;;;;23.22;39.63;97363.99;107635;1268;70298;-76
2022/11/06 09:27:58;;;;;;;;;;;;;;;22.72;39.34;97367.70;107637;1268;69279;-77
2022/11/06 09:30:28;;;;;;;;;;;;;;;22.60;40.75;97369.20;107675;1264;60592;-76
2022/11/06 09:32:58;;;;;;;;;;;;;;;22.58;41.07;97365.83;107662;1269;60502;-77
2022/11/06 09:35:27;;;;;;;;;;;;;;;22.38;40.94;97368.01;107665;1266;71411;-74
2022/11/06 09:38:00;;;;;;;;;;;;;;;22.18;41.35;97368.79;107684;1266;69767;-75
2022/11/06 09:40:49;;;;;;;;;;;;;;;22.34;41.44;97369.76;107704;1266;68345;-77
2022/11/06 09:43:23;;;;;;;;;;;;;;;22.74;41.23;97365.25;107700;1265;60522;-77
2022/11/06 09:46:18;;;;;;;;;;;;;;;23.17;40.75;97358.52;107660;1268;60600;-75
2022/11/06 09:48:50;;;;;;;;;;;;;;;23.58;39.20;97362.48;107630;1268;72199;-76
2022/11/06 09:51:26;;;;;;;;;;;;;;;24.01;37.93;97363.98;107681;1268;68771;-74
2022/11/06 09:53:58;;;;;;;;;;;;;;;24.62;38.88;97360.14;107653;1268;68460;-75
2022/11/06 09:56:29;;;;;;;;;;;;;;;24.79;38.08;97360.84;107657;1264;60573;-76
2022/11/06 09:59:00;;;;;;;;;;;;;;;25.24;37.55;97354.55;107675;1266;60597;-75
2022/11/06 10:01:46;;;;;;;;;;;;;;;25.43;35.55;97359.52;107668;1268;72856;-76
2022/11/06 10:04:21;;;;;;;;;;;;;;;25.78;35.62;97361.40;107795;1268;69155;-72
2022/11/06 10:06:50;;;;;;;;;;;;;;;26.05;35.23;97362.66;107628;1265;69316;-74
2022/11/06 10:09:18;;;;;;;;;;;;;;;26.42;35.03;97358.77;107680;1268;60525;-73
2022/11/06 10:12:07;;;;;;;;;;;;;;;26.61;34.21;97351.36;107689;1268;60543;-72
2022/11/06 10:14:35;;;;;;;;;;;;;;;26.39;34.17;97361.21;107648;1266;72169;-73
2022/11/06 10:17:19;;;;;;;;;;;;;;;26.52;33.86;97359.77;107756;1269;69328;-73
2022/11/06 10:19:53;;;;;;;;;;;;;;;26.82;34.32;97352.05;107743;1265;70219;-73
2022/11/06 10:22:21;;;;;;;;;;;;;;;26.75;33.03;97350.90;107585;1266;60528;-73
2022/11/06 10:24:50;;;;;;;;;;;;;;;26.76;33.11;97345.55;107770;1265;60478;-72
2022/11/06 10:27:27;;;;;;;;;;;;;;;26.81;32.71;97345.88;107664;1264;72688;-72
2022/11/06 10:29:58;;;;;;;;;;;;;;;26.77;32.84;97340.33;107821;1264;69029;-72
2022/11/06 10:32:45;;;;;;;;;;;;;;;26.54;32.81;97334.11;107631;1268;69894;-72
2022/11/06 10:35:32;;;;;;;;;;;;;;;26.14;32.48;97338.43;107635;1265;60599;-72
2022/11/06 10:38:10;;;;;;;;;;;;;;;25.84;33.32;97336.25;107640;1268;60605;-72
2022/11/06 10:40:41;;;;;;;;;;;;;;;25.50;33.56;97333.00;107734;1264;72183;-72
2022/11/06 10:43:25;;;;;;;;;;;;;;;25.19;33.53;97326.20;107647;1264;68391;-72
2022/11/06 10:45:58;;;;;;;;;;;;;;;24.99;34.19;97326.90;107622;1268;70114;-72
2022/11/06 10:48:32;;;;;;;;;;;;;;;25.22;34.15;97327.02;107611;1264;60586;-72
2022/11/06 10:51:20;;;;;;;;;;;;;;;25.56;33.86;97327.58;107781;1264;60884;-72
2022/11/06 10:54:02;;;;;;;;;;;;;;;25.88;32.79;97322.87;107764;1268;72820;-72
2022/11/06 10:56:31;;;;;;;;;;;;;;;25.84;32.49;97324.48;107616;1268;69226;-72
2022/11/06 10:58:59;;;;;;;;;;;;;;;25.74;32.45;97320.62;107769;1264;68789;-72
2022/11/06 11:01:28;;;;;;;;;;;;;;;25.82;33.11;97318.46;107613;1267;60565;-72
2022/11/06 11:03:56;;;;;;;;;;;;;;;26.09;32.87;97319.58;107631;1268;60561;-72
2022/11/06 11:06:25;;;;;;;;;;;;;;;26.15;31.93;97316.88;107781;1268;72437;-72
2022/11/06 11:08:54;;;;;;;;;;;;;;;26.03;31.87;97317.96;107748;1266;69674;-72
2022/11/06 11:11:26;;;;;;;;;;;;;;;25.99;32.20;97312.98;107737;1264;69373;-72
2022/11/06 11:13:59;;;;;;;;;;;;;;;25.86;32.40;97314.74;107649;1268;60551;-72
2022/11/06 11:16:32;;;;;;;;;;;;;;;25.80;32.60;97314.14;107615;1268;60532;-72
2022/11/06 11:19:20;;;;;;;;;;;;;;;25.91;33.08;97320.10;107689;1265;71384;-71
2022/11/06 11:21:52;;;;;;;;;;;;;;;26.33;33.05;97320.71;107624;1268;69282;-72
2022/11/06 11:24:21;;;;;;;;;;;;;;;26.66;31.76;97311.54;107662;1264;69771;-71
2022/11/06 11:27:00;;;;;;;;;;;;;;;26.47;31.15;97312.54;107647;1264;60578;-72
2022/11/06 11:29:41;;;;;;;;;;;;;;;26.14;31.92;97315.30;107616;1268;61026;-71
2022/11/06 11:32:13;;;;;;;;;;;;;;;26.09;32.19;97311.91;107642;1264;72064;-73
2022/11/06 11:34:46;;;;;;;;;;;;;;;26.10;32.05;97310.13;107642;1264;69445;-73
2022/11/06 11:37:30;;;;;;;;;;;;;;;25.87;32.32;97308.69;107680;1268;69907;-73
2022/11/06 11:40:17;;;;;;;;;;;;;;;25.34;32.52;97305.73;107799;1268;60965;-70
2022/11/06 11:42:45;;;;;;;;;;;;;;;24.96;33.55;97301.52;107632;1267;60518;-72
2022/11/06 11:45:14;;;;;;;;;;;;;;;24.71;34.05;97299.73;107626;1268;72040;-71
2022/11/06 11:47:47;;;;;;;;;;;;;;;24.39;34.42;97301.45;107634;1265;69666;-69
2022/11/06 11:50:30;;;;;;;;;;;;;;;24.04;35.07;97298.40;107617;1268;69904;-70
2022/11/06 11:53:09;;;;;;;;;;;;;;;23.75;35.61;97297.73;107638;1270;60564;-70
2022/11/06 11:55:43;;;;;;;;;;;;;;;23.24;36.04;97296.89;107619;1270;60538;-70
2022/11/06 11:58:20;;;;;;;;;;;;;;;22.60;36.87;97295.45;107625;1266;71392;-70
2022/11/06 12:00:51;;;;;;;;;;;;;;;22.24;37.51;97297.27;107614;1268;69206;-70
2022/11/06 12:03:21;;;;;;;;;;;;;;;22.08;38.23;97297.19;107618;1266;69079;-70
2022/11/06 12:05:51;;;;;;;;;;;;;;;22.00;38.31;97303.19;107622;1267;60498;-70
2022/11/06 12:08:24;;;;;;;;;;;;;;;22.03;38.48;97299.93;107662;1270;60530;-70
2022/11/06 12:10:59;;;;;;;;;;;;;;;22.02;38.65;97303.20;107650;1268;72327;-71
2022/11/06 12:13:28;;;;;;;;;;;;;;;22.05;38.92;97300.59;107639;1270;69031;-71
2022/11/06 12:15:59;;;;;;;;;;;;;;;22.22;39.30;97295.23;107648;1266;68777;-67
2022/11/06 12:18:27;;;;;;;;;;;;;;;22.46;38.73;97299.92;107637;1268;60522;-68
2022/11/06 12:21:14;;;;;;;;;;;;;;;22.68;38.95;97296.08;107606;1267;60496;-71
2022/11/06 12:24:02;;;;;;;;;;;;;;;22.86;38.77;97296.45;107609;1268;71220;-70
2022/11/06 12:26:40;;;;;;;;;;;;;;;22.94;38.42;97297.52;107601;1267;68921;-71
2022/11/06 12:29:12;;;;;;;;;;;;;;;22.90;37.93;97296.53;107654;1268;69264;-71
2022/11/06 12:31:44;;;;;;;;;;;;;;;22.89;39.03;97299.55;107590;1270;60514;-71
2022/11/06 12:34:17;;;;;;;;;;;;;;;23.02;38.55;97296.98;107637;1267;60478;-71
2022/11/06 12:36:58;;;;;;;;;;;;;;;22.90;38.07;97299.70;107660;1270;72186;-71
2022/11/06 12:39:31;;;;;;;;;;;;;;;22.84;38.41;97302.18;107628;1267;69104;-70
2022/11/06 12:42:01;;;;;;;;;;;;;;;22.88;38.39;97305.16;107669;1267;69288;-70
2022/11/06 12:44:29;;;;;;;;;;;;;;;22.93;38.63;97304.86;107621;1270;60531;-70
2022/11/06 12:47:16;;;;;;;;;;;;;;;22.93;38.72;97304.23;107665;1269;60535;-70
2022/11/06 12:49:52;;;;;;;;;;;;;;;22.94;38.58;97303.07;107632;1269;72829;-70
2022/11/06 12:52:41;;;;;;;;;;;;;;;22.66;38.52;97301.27;107676;1271;69156;-70
2022/11/06 12:55:30;;;;;;;;;;;;;;;22.59;38.76;97307.02;107553;1265;69301;-70
2022/11/06 12:57:58;;;;;;;;;;;;;;;22.27;39.01;97303.31;107637;1269;60496;-70
2022/11/06 13:00:33;;;;;;;;;;;;;;;22.00;39.05;97308.17;107654;1267;60477;-70
2022/11/06 13:03:16;;;;;;;;;;;;;;;21.56;39.38;97309.02;107612;1269;71539;-71
2022/11/06 13:05:44;;;;;;;;;;;;;;;21.31;39.93;97310.33;107617;1268;68275;-70
2022/11/06 13:08:19;;;;;;;;;;;;;;;21.12;40.50;97313.85;107630;1270;68509;-70
2022/11/06 13:11:02;;;;;;;;;;;;;;;20.88;40.69;97303.73;107641;1270;60580;-71
2022/11/06 13:13:31;;;;;;;;;;;;;;;20.58;41.52;97306.30;107659;1269;60481;-71
2022/11/06 13:16:03;;;;;;;;;;;;;;;20.48;41.70;97306.71;107663;1268;72204;-71
2022/11/06 13:18:42;;;;;;;;;;;;;;;20.34;42.04;97307.80;107612;1270;68371;-69
2022/11/06 13:21:19;;;;;;;;;;;;;;;20.15;42.88;97310.01;107636;1266;68377;-69
2022/11/06 13:23:54;;;;;;;;;;;;;;;20.10;43.18;97306.85;107631;1270;60990;-69
2022/11/06 13:26:33;;;;;;;;;;;;;;;20.04;43.18;97311.09;107641;1267;60559;-71